createdAt,value
2023-04-16T00:02:17.636Z,0.50
2023-04-16T00:04:46.070Z,0.60
2023-04-16T00:07:14.388Z,0.50
2023-04-16T00:09:42.727Z,0.50
2023-04-16T00:12:11.108Z,0.60
2023-04-16T00:14:39.550Z,0.70
2023-04-16T00:17:09.303Z,0.57
2023-04-16T00:19:37.895Z,0.50
2023-04-16T00:22:06.193Z,0.82
2023-04-16T00:24:34.479Z,1.08
2023-04-16T00:27:02.765Z,0.50
2023-04-16T00:29:32.353Z,0.77
2023-04-16T00:32:00.651Z,0.68
2023-04-16T00:34:30.291Z,0.40
2023-04-16T00:36:58.568Z,0.88
2023-04-16T00:39:26.836Z,0.60
2023-04-16T00:41:55.027Z,0.50
2023-04-16T00:44:23.322Z,0.60
2023-04-16T00:46:52.357Z,0.50
2023-04-16T00:49:20.766Z,0.40
2023-04-16T00:51:50.650Z,0.68
2023-04-16T00:54:20.373Z,0.45
2023-04-16T00:56:48.830Z,0.55
2023-04-16T00:59:17.307Z,0.60
2023-04-16T01:01:45.748Z,0.50
2023-04-16T01:04:14.117Z,0.40
2023-04-16T01:06:44.320Z,0.50
2023-04-16T01:09:14.464Z,0.50
2023-04-16T01:11:42.770Z,1.20
2023-04-16T01:14:11.123Z,0.70
2023-04-16T01:16:39.600Z,0.60
2023-04-16T01:19:08.432Z,0.93
2023-04-16T01:21:38.232Z,0.50
2023-04-16T01:24:07.023Z,0.60
2023-04-16T01:26:35.292Z,0.40
2023-04-16T01:29:04.286Z,0.40
2023-04-16T01:31:32.512Z,0.40
2023-04-16T01:34:07.417Z,0.50
2023-04-16T01:36:38.049Z,0.47
2023-04-16T01:39:06.378Z,0.40
2023-04-16T01:41:34.685Z,0.50
2023-04-16T01:44:03.031Z,0.43
2023-04-16T01:46:34.345Z,0.57
2023-04-16T01:49:03.074Z,0.40
2023-04-16T01:51:31.302Z,0.40
2023-04-16T01:54:00.929Z,0.40
2023-04-16T01:56:29.149Z,0.40
2023-04-16T01:58:57.461Z,0.50
2023-04-16T02:01:28.151Z,0.77
2023-04-16T02:03:57.948Z,0.50
2023-04-16T02:06:27.604Z,0.60
2023-04-16T02:08:55.896Z,0.55
2023-04-16T02:11:25.592Z,0.50
2023-04-16T02:13:54.307Z,0.50
2023-04-16T02:16:22.557Z,0.40
2023-04-16T02:18:53.892Z,0.40
2023-04-16T02:21:23.974Z,0.40
2023-04-16T02:23:52.492Z,0.50
2023-04-16T02:26:29.222Z,1.48
2023-04-16T02:29:01.520Z,0.75
2023-04-16T02:31:37.734Z,1.13
2023-04-16T02:34:06.883Z,0.40
2023-04-16T02:36:35.419Z,0.50
2023-04-16T02:39:03.715Z,0.55
2023-04-16T02:41:33.275Z,0.45
2023-04-16T02:44:01.628Z,0.57
2023-04-16T02:46:30.006Z,0.40
2023-04-16T02:48:58.246Z,0.45
2023-04-16T02:51:26.536Z,0.43
2023-04-16T02:53:54.858Z,0.50
2023-04-16T02:56:23.101Z,0.50
2023-04-16T02:58:52.754Z,0.63
2023-04-16T03:01:21.214Z,1.20
2023-04-16T03:03:49.502Z,0.50
2023-04-16T03:06:17.875Z,0.40
2023-04-16T03:08:46.067Z,0.40
2023-04-16T03:11:14.297Z,0.80
2023-04-16T03:13:42.501Z,0.50
2023-04-16T03:16:13.017Z,0.82
2023-04-16T03:18:41.325Z,0.82
2023-04-16T03:21:09.525Z,0.40
2023-04-16T03:23:37.761Z,0.57
2023-04-16T03:26:06.492Z,0.32
2023-04-16T03:28:34.976Z,0.60
2023-04-16T03:31:03.318Z,1.88
2023-04-16T03:33:33.063Z,1.50
2023-04-16T03:36:01.428Z,1.23
2023-04-16T03:38:32.135Z,2.15
2023-04-16T03:41:01.056Z,3.30
2023-04-16T03:43:31.936Z,2.05
2023-04-16T03:46:00.352Z,3.58
2023-04-16T03:48:28.694Z,3.20
2023-04-16T03:50:58.448Z,5.53
2023-04-16T03:53:26.807Z,5.72
2023-04-16T03:55:55.232Z,9.07
2023-04-16T03:58:23.908Z,6.03
2023-04-16T04:00:54.895Z,9.15
2023-04-16T04:03:23.700Z,10.38
2023-04-16T04:05:52.158Z,12.48
2023-04-16T04:08:27.984Z,10.00
2023-04-16T04:10:56.230Z,13.45
2023-04-16T04:13:25.833Z,13.40
2023-04-16T04:15:54.800Z,14.02
2023-04-16T04:18:24.320Z,11.93
2023-04-16T04:20:53.167Z,14.23
2023-04-16T04:23:25.073Z,16.55
2023-04-16T04:25:54.773Z,16.55
2023-04-16T04:28:23.005Z,13.35
2023-04-16T04:30:51.269Z,15.40
2023-04-16T04:33:20.041Z,17.52
2023-04-16T04:35:49.328Z,14.05
2023-04-16T04:38:19.901Z,18.48
2023-04-16T04:40:48.692Z,18.20
2023-04-16T04:43:19.837Z,18.83
2023-04-16T04:45:49.314Z,14.20
2023-04-16T04:48:18.737Z,19.02
2023-04-16T04:50:47.881Z,18.35
2023-04-16T04:53:16.216Z,17.83
2023-04-16T04:55:44.634Z,17.05
2023-04-16T04:58:12.895Z,16.42
2023-04-16T05:00:44.264Z,16.73
2023-04-16T05:03:13.259Z,20.70
2023-04-16T05:05:41.836Z,16.38
2023-04-16T05:08:10.049Z,18.63
2023-04-16T05:10:38.423Z,17.48
2023-04-16T05:13:06.723Z,20.65
2023-04-16T05:15:36.128Z,19.75
2023-04-16T05:18:06.183Z,23.20
2023-04-16T05:20:34.479Z,22.08
2023-04-16T05:23:02.801Z,18.13
2023-04-16T05:25:31.031Z,19.67
2023-04-16T05:27:59.278Z,20.30
2023-04-16T05:30:27.513Z,18.92
2023-04-16T05:32:55.845Z,16.13
2023-04-16T05:35:25.562Z,21.42
2023-04-16T05:37:53.749Z,22.48
2023-04-16T05:40:22.179Z,21.00
2023-04-16T05:42:50.485Z,22.08
2023-04-16T05:45:18.756Z,20.52
2023-04-16T05:47:47.022Z,17.40
2023-04-16T05:50:15.829Z,21.10
2023-04-16T05:52:45.554Z,17.50
2023-04-16T05:55:13.872Z,22.27
2023-04-16T05:57:42.086Z,20.63
2023-04-16T06:00:10.935Z,18.85
2023-04-16T06:02:42.432Z,18.35
2023-04-16T06:05:11.123Z,22.27
2023-04-16T06:07:39.407Z,20.50
2023-04-16T06:10:10.012Z,17.98
2023-04-16T06:12:38.238Z,13.10
2023-04-16T06:15:07.441Z,21.55
2023-04-16T06:17:35.689Z,16.67
2023-04-16T06:20:04.896Z,18.42
2023-04-16T06:22:33.219Z,21.23
2023-04-16T06:25:01.409Z,14.68
2023-04-16T06:27:31.993Z,19.65
2023-04-16T06:30:00.193Z,21.80
2023-04-16T06:32:28.508Z,19.98
2023-04-16T06:34:58.822Z,17.58
2023-04-16T06:37:27.080Z,21.30
2023-04-16T06:39:55.411Z,17.13
2023-04-16T06:42:24.231Z,16.83
2023-04-16T06:44:53.861Z,16.90
2023-04-16T06:47:22.144Z,15.52
2023-04-16T06:49:50.483Z,15.18
2023-04-16T06:52:18.727Z,18.23
2023-04-16T06:54:47.116Z,15.57
2023-04-16T06:57:16.051Z,15.25
2023-04-16T06:59:44.514Z,17.65
2023-04-16T07:02:14.468Z,17.90
2023-04-16T07:04:42.853Z,20.23
2023-04-16T07:07:11.037Z,16.42
2023-04-16T07:09:39.260Z,18.02
2023-04-16T07:12:08.308Z,16.42
2023-04-16T07:14:36.870Z,17.83
2023-04-16T07:17:05.166Z,15.65
2023-04-16T07:19:35.530Z,16.17
2023-04-16T07:22:03.748Z,15.43
2023-04-16T07:24:32.446Z,13.80
2023-04-16T07:27:00.652Z,16.58
2023-04-16T07:29:28.921Z,13.45
2023-04-16T07:31:57.318Z,14.93
2023-04-16T07:34:25.704Z,14.55
2023-04-16T07:36:55.702Z,10.73
2023-04-16T07:39:23.988Z,14.35
2023-04-16T07:41:52.213Z,13.02
2023-04-16T07:44:20.611Z,15.93
2023-04-16T07:46:48.920Z,14.68
2023-04-16T07:49:17.424Z,14.65
2023-04-16T07:51:45.714Z,15.32
2023-04-16T07:54:15.604Z,13.02
2023-04-16T07:56:43.909Z,14.13
2023-04-16T07:59:21.840Z,13.32
2023-04-16T08:01:54.409Z,11.15
2023-04-16T08:04:25.532Z,13.13
2023-04-16T08:06:54.353Z,13.07
2023-04-16T08:09:25.075Z,11.05
2023-04-16T08:11:53.376Z,11.75
2023-04-16T08:14:21.825Z,11.93
2023-04-16T08:16:51.400Z,12.20
2023-04-16T08:19:19.977Z,12.10
2023-04-16T08:21:48.616Z,12.10
2023-04-16T08:24:16.940Z,10.27
2023-04-16T08:26:46.540Z,9.65
2023-04-16T08:29:14.767Z,12.23
2023-04-16T08:31:43.345Z,9.90
2023-04-16T08:34:12.463Z,14.95
2023-04-16T08:36:41.874Z,12.20
2023-04-16T08:39:10.645Z,9.65
2023-04-16T08:41:42.927Z,10.30
2023-04-16T08:44:17.810Z,9.75
2023-04-16T08:46:47.649Z,9.80
2023-04-16T08:49:18.922Z,10.40
2023-04-16T08:51:52.227Z,7.82
2023-04-16T08:54:33.249Z,8.07
2023-04-16T08:57:03.574Z,10.40
2023-04-16T08:59:34.336Z,6.50
2023-04-16T09:02:03.805Z,9.80
2023-04-16T09:04:33.639Z,7.43
2023-04-16T09:07:05.695Z,9.73
2023-04-16T09:09:34.812Z,6.82
2023-04-16T09:12:03.219Z,6.60
2023-04-16T09:14:32.894Z,7.60
2023-04-16T09:17:02.506Z,7.85
2023-04-16T09:19:30.941Z,8.52
2023-04-16T09:21:59.420Z,8.07
2023-04-16T09:24:27.956Z,6.97
2023-04-16T09:26:57.015Z,6.38
2023-04-16T09:29:37.251Z,6.93
2023-04-16T09:32:06.958Z,8.40
2023-04-16T09:34:36.224Z,6.88
2023-04-16T09:37:17.008Z,6.05
2023-04-16T09:39:45.992Z,7.63
2023-04-16T09:42:15.821Z,7.43
2023-04-16T09:44:45.910Z,7.15
2023-04-16T09:47:14.230Z,5.47
2023-04-16T09:49:43.404Z,6.88
2023-04-16T09:52:15.555Z,6.75
2023-04-16T09:54:50.874Z,4.97
2023-04-16T09:57:22.940Z,6.55
2023-04-16T09:59:55.037Z,6.53
2023-04-16T10:02:27.599Z,5.65
2023-04-16T10:04:57.614Z,8.13
2023-04-16T10:07:30.619Z,9.02
2023-04-16T10:09:59.702Z,5.43
2023-04-16T10:12:28.853Z,5.65
2023-04-16T10:14:58.860Z,5.40
2023-04-16T10:17:29.944Z,7.68
2023-04-16T10:19:59.433Z,8.30
2023-04-16T10:22:27.741Z,6.13
2023-04-16T10:24:56.810Z,4.82
2023-04-16T10:27:25.765Z,5.68
2023-04-16T10:29:54.055Z,4.97
2023-04-16T10:32:28.501Z,4.47
2023-04-16T10:34:57.155Z,6.28
2023-04-16T10:37:31.264Z,4.97
2023-04-16T10:40:00.465Z,4.68
2023-04-16T10:42:28.919Z,5.35
2023-04-16T10:45:01.293Z,5.45
2023-04-16T10:47:31.763Z,5.20
2023-04-16T10:50:00.159Z,5.22
2023-04-16T10:52:30.820Z,4.85
2023-04-16T10:55:01.340Z,5.22
2023-04-16T10:57:30.909Z,5.22
2023-04-16T10:59:59.399Z,5.05
2023-04-16T11:02:30.899Z,4.10
2023-04-16T11:04:59.591Z,4.32
2023-04-16T11:07:34.755Z,4.38
2023-04-16T11:10:06.007Z,4.40
2023-04-16T11:12:37.484Z,5.28
2023-04-16T11:15:08.147Z,4.43
2023-04-16T11:17:41.113Z,3.08
2023-04-16T11:20:17.382Z,5.93
2023-04-16T11:22:47.331Z,3.42
2023-04-16T11:25:21.180Z,5.00
2023-04-16T11:27:49.520Z,4.15
2023-04-16T11:30:18.894Z,5.30
2023-04-16T11:32:48.733Z,5.20
2023-04-16T11:35:18.851Z,3.45
2023-04-16T11:37:48.418Z,4.40
2023-04-16T11:40:16.780Z,3.97
2023-04-16T11:42:45.485Z,3.67
2023-04-16T11:45:14.136Z,3.67
2023-04-16T11:47:46.910Z,3.80
2023-04-16T11:50:21.556Z,4.35
2023-04-16T11:52:50.572Z,2.63
2023-04-16T11:55:19.380Z,4.18
2023-04-16T11:57:48.060Z,3.20
2023-04-16T12:00:17.137Z,3.58
2023-04-16T12:02:47.651Z,4.15
2023-04-16T12:05:32.113Z,4.90
2023-04-16T12:08:01.717Z,4.38
2023-04-16T12:10:30.657Z,3.40
2023-04-16T12:13:12.699Z,4.25
2023-04-16T12:15:48.454Z,2.72
2023-04-16T12:18:17.306Z,3.28
2023-04-16T12:20:47.630Z,3.72
2023-04-16T12:23:26.819Z,3.10
2023-04-16T12:25:55.829Z,2.45
2023-04-16T12:28:32.121Z,2.88
2023-04-16T12:31:00.661Z,3.00
2023-04-16T12:33:29.231Z,4.43
2023-04-16T12:35:59.112Z,3.35
2023-04-16T12:38:28.113Z,3.83
2023-04-16T12:40:57.536Z,3.35
2023-04-16T12:43:26.237Z,3.58
2023-04-16T12:45:54.578Z,3.17
2023-04-16T12:48:22.834Z,3.40
2023-04-16T12:50:51.216Z,3.25
2023-04-16T12:53:21.015Z,2.38
2023-04-16T12:55:49.768Z,3.42
2023-04-16T12:58:17.940Z,2.97
2023-04-16T13:00:46.278Z,2.65
2023-04-16T13:03:15.061Z,2.80
2023-04-16T13:05:43.581Z,2.10
2023-04-16T13:08:11.835Z,2.92
2023-04-16T13:10:41.512Z,3.08
2023-04-16T13:13:09.751Z,4.20
2023-04-16T13:15:38.135Z,2.85
2023-04-16T13:18:06.651Z,2.92
2023-04-16T13:20:35.099Z,3.97
2023-04-16T13:23:04.925Z,2.50
2023-04-16T13:25:33.264Z,2.38
2023-04-16T13:28:02.848Z,2.28
2023-04-16T13:30:31.845Z,2.63
2023-04-16T13:33:00.346Z,3.03
2023-04-16T13:35:28.770Z,2.83
2023-04-16T13:37:57.084Z,2.38
2023-04-16T13:40:25.436Z,2.83
2023-04-16T13:42:53.840Z,2.47
2023-04-16T13:45:23.489Z,2.05
2023-04-16T13:47:51.892Z,1.95
2023-04-16T13:50:20.395Z,3.03
2023-04-16T13:52:48.695Z,2.25
2023-04-16T13:55:19.192Z,2.28
2023-04-16T13:57:48.358Z,2.47
2023-04-16T14:00:18.026Z,2.13
2023-04-16T14:02:48.815Z,1.85
2023-04-16T14:05:17.398Z,1.80
2023-04-16T14:07:45.726Z,2.50
2023-04-16T14:10:13.956Z,2.88
2023-04-16T14:12:42.326Z,2.50
2023-04-16T14:15:11.245Z,1.95
2023-04-16T14:17:39.720Z,2.40
2023-04-16T14:20:11.007Z,1.98
2023-04-16T14:22:39.334Z,2.25
2023-04-16T14:25:08.244Z,1.88
2023-04-16T14:27:36.556Z,3.00
2023-04-16T14:30:05.486Z,2.30
2023-04-16T14:32:33.870Z,1.95
2023-04-16T14:35:02.149Z,2.25
2023-04-16T14:37:32.384Z,1.70
2023-04-16T14:40:02.107Z,2.10
2023-04-16T14:42:30.353Z,1.88
2023-04-16T14:44:58.590Z,1.75
2023-04-16T14:47:27.204Z,1.85
2023-04-16T14:49:55.459Z,1.98
2023-04-16T14:52:23.693Z,2.40
2023-04-16T14:54:54.860Z,1.92
2023-04-16T14:57:23.437Z,2.20
2023-04-16T14:59:51.818Z,1.60
2023-04-16T15:02:20.315Z,1.90
2023-04-16T15:04:48.778Z,2.20
2023-04-16T15:07:17.222Z,2.15
2023-04-16T15:09:45.624Z,1.90
2023-04-16T15:12:18.016Z,1.90
2023-04-16T15:14:47.371Z,1.75
2023-04-16T15:17:15.756Z,1.60
2023-04-16T15:19:44.144Z,1.70
2023-04-16T15:22:12.633Z,1.67
2023-04-16T15:24:41.205Z,1.58
2023-04-16T15:27:11.560Z,1.75
2023-04-16T15:29:41.715Z,1.88
2023-04-16T15:32:10.004Z,2.70
2023-04-16T15:34:38.382Z,1.65
2023-04-16T15:37:06.783Z,3.42
2023-04-16T15:39:35.027Z,2.13
2023-04-16T15:42:07.416Z,2.17
2023-04-16T15:44:36.364Z,1.40
2023-04-16T15:47:06.447Z,1.63
2023-04-16T15:49:34.847Z,1.70
2023-04-16T15:52:03.375Z,1.52
2023-04-16T15:54:31.823Z,1.50
2023-04-16T15:57:00.286Z,1.50
2023-04-16T15:59:28.741Z,1.73
2023-04-16T16:01:57.329Z,1.85
2023-04-16T16:04:28.201Z,1.50
2023-04-16T16:06:57.354Z,1.40
2023-04-16T16:09:26.965Z,1.83
2023-04-16T16:11:55.865Z,1.58
2023-04-16T16:14:24.487Z,2.05
2023-04-16T16:16:52.832Z,1.48
2023-04-16T16:19:21.193Z,1.90
2023-04-16T16:21:51.391Z,2.45
2023-04-16T16:24:19.851Z,1.95
2023-04-16T16:26:48.158Z,1.35
2023-04-16T16:29:16.429Z,1.63
2023-04-16T16:31:44.764Z,1.80
2023-04-16T16:34:19.892Z,2.00
2023-04-16T16:36:50.850Z,1.30
2023-04-16T16:39:22.458Z,1.70
2023-04-16T16:41:52.316Z,1.85
2023-04-16T16:44:20.731Z,1.42
2023-04-16T16:46:49.421Z,1.73
2023-04-16T16:49:18.254Z,1.52
2023-04-16T16:51:46.948Z,1.40
2023-04-16T16:54:17.117Z,1.60
2023-04-16T16:56:45.694Z,1.80
2023-04-16T16:59:14.042Z,1.50
2023-04-16T17:01:42.426Z,1.50
2023-04-16T17:04:10.938Z,1.70
2023-04-16T17:06:39.983Z,1.20
2023-04-16T17:09:08.401Z,1.25
2023-04-16T17:11:38.181Z,1.30
2023-04-16T17:14:06.570Z,1.33
2023-04-16T17:16:34.964Z,1.42
2023-04-16T17:19:03.261Z,1.40
2023-04-16T17:21:32.720Z,1.42
2023-04-16T17:24:01.113Z,1.38
2023-04-16T17:26:29.439Z,1.38
2023-04-16T17:28:59.359Z,1.95
2023-04-16T17:31:27.797Z,2.13
2023-04-16T17:33:56.138Z,2.55
2023-04-16T17:36:25.470Z,1.55
2023-04-16T17:38:53.784Z,1.70
2023-04-16T17:41:22.102Z,1.52
2023-04-16T17:43:51.136Z,1.42
2023-04-16T17:46:20.809Z,1.50
2023-04-16T17:48:49.139Z,1.35
2023-04-16T17:51:17.455Z,1.40
2023-04-16T17:53:45.922Z,1.35
2023-04-16T17:56:14.790Z,2.38
2023-04-16T17:58:43.083Z,1.30
2023-04-16T18:01:11.836Z,1.40
2023-04-16T18:03:42.166Z,1.35
2023-04-16T18:06:10.667Z,1.40
2023-04-16T18:08:38.891Z,1.40
2023-04-16T18:11:10.338Z,1.40
2023-04-16T18:13:38.864Z,1.48
2023-04-16T18:16:07.631Z,1.35
2023-04-16T18:18:36.074Z,1.27
2023-04-16T18:21:05.751Z,1.67
2023-04-16T18:23:34.004Z,1.40
2023-04-16T18:26:02.615Z,1.13
2023-04-16T18:28:31.280Z,1.27
2023-04-16T18:31:03.827Z,1.40
2023-04-16T18:36:03.803Z,1.30
2023-04-16T18:38:33.446Z,1.65
2023-04-16T18:41:02.208Z,1.17
2023-04-16T18:43:31.088Z,1.73
2023-04-16T18:45:59.320Z,1.60
2023-04-16T18:48:27.647Z,1.20
2023-04-16T18:50:58.027Z,1.30
2023-04-16T18:53:26.329Z,1.70
2023-04-16T18:55:56.198Z,2.08
2023-04-16T18:58:24.458Z,1.30
2023-04-16T19:00:54.171Z,1.35
2023-04-16T19:03:22.614Z,1.45
2023-04-16T19:05:50.979Z,1.55
2023-04-16T19:08:19.334Z,1.42
2023-04-16T19:10:49.000Z,1.38
2023-04-16T19:13:18.617Z,2.25
2023-04-16T19:15:47.063Z,1.08
2023-04-16T19:18:15.304Z,1.50
2023-04-16T19:20:43.637Z,1.20
2023-04-16T19:23:13.010Z,1.30
2023-04-16T19:25:41.808Z,1.38
2023-04-16T19:28:10.136Z,1.35
2023-04-16T19:30:40.521Z,1.30
2023-04-16T19:33:08.874Z,1.30
2023-04-16T19:35:37.247Z,1.75
2023-04-16T19:38:05.679Z,1.45
2023-04-16T19:40:33.946Z,1.33
2023-04-16T19:43:02.389Z,1.35
2023-04-16T19:45:30.821Z,1.48
2023-04-16T19:48:00.567Z,1.30
2023-04-16T19:50:28.920Z,1.20
2023-04-16T19:52:57.257Z,1.33
2023-04-16T19:55:25.697Z,1.30
2023-04-16T19:57:54.037Z,1.58
2023-04-16T20:00:22.748Z,1.17
2023-04-16T20:02:51.139Z,1.58
2023-04-16T20:05:21.008Z,1.20
2023-04-16T20:07:50.828Z,1.45
2023-04-16T20:10:21.061Z,1.40
2023-04-16T20:12:50.772Z,1.25
2023-04-16T20:15:19.526Z,1.35
2023-04-16T20:17:47.933Z,1.33
2023-04-16T20:20:17.449Z,1.20
2023-04-16T20:22:47.039Z,1.10
2023-04-16T20:25:18.525Z,1.25
2023-04-16T20:27:46.900Z,1.20
2023-04-16T20:30:15.716Z,1.40
2023-04-16T20:32:44.192Z,1.42
2023-04-16T20:35:12.826Z,1.00
2023-04-16T20:37:43.005Z,1.58
2023-04-16T20:40:13.987Z,1.30
2023-04-16T20:42:46.420Z,1.73
2023-04-16T20:45:14.847Z,1.40
2023-04-16T20:47:43.810Z,1.52
2023-04-16T20:50:12.655Z,1.30
2023-04-16T20:52:42.349Z,1.20
2023-04-16T20:55:12.394Z,1.30
2023-04-16T20:57:40.649Z,1.25
2023-04-16T21:00:12.247Z,1.30
2023-04-16T21:02:40.973Z,1.20
2023-04-16T21:05:13.898Z,1.40
2023-04-16T21:07:42.503Z,1.20
2023-04-16T21:10:17.415Z,1.30
2023-04-16T21:12:45.882Z,1.30
2023-04-16T21:15:14.334Z,1.35
2023-04-16T21:17:42.690Z,1.30
2023-04-16T21:20:13.424Z,1.20
2023-04-16T21:22:41.822Z,1.38
2023-04-16T21:25:12.336Z,1.20
2023-04-16T21:27:40.663Z,1.92
2023-04-16T21:30:10.511Z,1.50
2023-04-16T21:32:39.086Z,1.27
2023-04-16T21:35:08.006Z,1.23
2023-04-16T21:37:36.418Z,1.48
2023-04-16T21:40:06.145Z,2.05
2023-04-16T21:42:39.656Z,1.30
2023-04-16T21:45:09.417Z,1.40
2023-04-16T21:47:38.355Z,1.33
2023-04-16T21:50:07.509Z,1.30
2023-04-16T21:52:40.299Z,1.38
2023-04-16T21:55:10.353Z,2.00
2023-04-16T21:57:40.162Z,1.23
2023-04-16T22:00:13.498Z,1.30
2023-04-16T22:02:43.240Z,1.30
2023-04-16T22:05:12.213Z,1.35
2023-04-16T22:07:40.505Z,1.38
2023-04-16T22:10:10.068Z,1.92
2023-04-16T22:12:39.998Z,1.52
2023-04-16T22:15:10.464Z,1.45
2023-04-16T22:17:39.375Z,1.40
2023-04-16T22:20:11.560Z,1.40
2023-04-16T22:22:40.128Z,1.38
2023-04-16T22:25:09.283Z,1.15
2023-04-16T22:27:39.378Z,1.30
2023-04-16T22:30:09.104Z,1.55
2023-04-16T22:32:37.449Z,1.30
2023-04-16T22:35:06.648Z,1.10
2023-04-16T22:37:34.929Z,1.65
2023-04-16T22:40:07.532Z,1.23
2023-04-16T22:42:35.916Z,1.40
2023-04-16T22:45:07.474Z,1.13
2023-04-16T22:47:36.038Z,1.20
2023-04-16T22:50:04.955Z,1.27
2023-04-16T22:52:33.368Z,1.60
2023-04-16T22:55:01.748Z,1.40
2023-04-16T22:57:30.150Z,1.20
2023-04-16T22:59:58.371Z,1.42
2023-04-16T23:02:28.041Z,1.38
2023-04-16T23:04:56.706Z,1.63
2023-04-16T23:07:25.040Z,2.40
2023-04-16T23:09:53.267Z,2.55
2023-04-16T23:12:21.547Z,1.52
2023-04-16T23:14:49.792Z,1.20
2023-04-16T23:17:18.110Z,1.40
2023-04-16T23:19:47.808Z,1.00
2023-04-16T23:22:16.089Z,1.00
2023-04-16T23:24:44.313Z,1.30
2023-04-16T23:27:12.624Z,1.48
2023-04-16T23:29:41.109Z,1.30
2023-04-16T23:32:09.435Z,2.58
2023-04-16T23:34:37.642Z,1.23
2023-04-16T23:37:07.272Z,1.33
2023-04-16T23:39:35.604Z,1.15
2023-04-16T23:42:03.847Z,1.40
2023-04-16T23:44:32.157Z,1.30
2023-04-16T23:47:00.477Z,1.30
2023-04-16T23:49:28.942Z,1.67
2023-04-16T23:51:57.230Z,1.38
2023-04-16T23:54:27.044Z,1.30
2023-04-16T23:56:57.076Z,1.35
2023-04-16T23:59:25.427Z,1.45
